createdAt,value
2018-12-07T00:00:03.473Z,87.65
2018-12-07T00:02:34.216Z,87.36
2018-12-07T00:05:03.336Z,88.18
2018-12-07T00:07:32.297Z,87.45
2018-12-07T00:10:01.134Z,87.77
2018-12-07T00:12:30.392Z,88.03
2018-12-07T00:14:59.201Z,87.63
2018-12-07T00:17:28.078Z,87.67
2018-12-07T00:19:57.040Z,87.92
2018-12-07T00:22:26.026Z,87.53
2018-12-07T00:24:54.820Z,87.76
2018-12-07T00:27:23.611Z,87.84
2018-12-07T00:29:52.341Z,88.10
2018-12-07T00:32:21.372Z,88.77
2018-12-07T00:34:50.196Z,88.49
2018-12-07T00:37:19.003Z,87.78
2018-12-07T00:39:47.858Z,88.02
2018-12-07T00:42:17.015Z,88.37
2018-12-07T00:44:45.847Z,87.96
2018-12-07T00:47:14.887Z,88.08
2018-12-07T00:49:43.646Z,87.73
2018-12-07T00:52:12.522Z,88.27
2018-12-07T00:54:41.461Z,88.55
2018-12-07T00:57:10.275Z,88.00
2018-12-07T00:59:39.311Z,87.71
2018-12-07T01:02:08.047Z,88.73
2018-12-07T01:04:36.967Z,88.77
2018-12-07T01:07:05.768Z,88.68
2018-12-07T01:09:34.655Z,88.04
2018-12-07T01:12:03.392Z,87.88
2018-12-07T01:14:32.629Z,87.93
2018-12-07T01:17:01.467Z,87.86
2018-12-07T01:19:30.383Z,88.59
2018-12-07T01:21:59.199Z,88.57
2018-12-07T01:24:28.015Z,89.02
2018-12-07T01:26:56.745Z,88.65
2018-12-07T01:29:25.823Z,88.54
2018-12-07T01:31:54.862Z,88.26
2018-12-07T01:34:23.733Z,88.20
2018-12-07T01:36:52.475Z,88.55
2018-12-07T01:39:21.301Z,88.67
2018-12-07T01:41:50.316Z,88.61
2018-12-07T01:44:19.137Z,88.46
2018-12-07T01:46:48.082Z,88.21
2018-12-07T01:49:18.426Z,87.85
2018-12-07T01:51:47.678Z,87.78
2018-12-07T01:54:16.413Z,87.95
2018-12-07T01:56:45.495Z,88.31
2018-12-07T01:59:14.300Z,88.57
2018-12-07T02:01:43.413Z,88.56
2018-12-07T02:04:12.141Z,88.64
2018-12-07T02:06:40.959Z,88.74
2018-12-07T02:09:10.739Z,88.59
2018-12-07T02:11:39.624Z,88.45
2018-12-07T02:14:08.469Z,88.39
2018-12-07T02:16:39.123Z,88.81
2018-12-07T02:19:07.862Z,89.32
2018-12-07T02:21:36.612Z,88.98
2018-12-07T02:24:05.643Z,88.93
2018-12-07T02:26:34.496Z,88.69
2018-12-07T02:29:03.348Z,88.22
2018-12-07T02:31:32.470Z,88.74
2018-12-07T02:34:01.633Z,88.83
2018-12-07T02:36:30.855Z,88.17
2018-12-07T02:38:59.607Z,88.22
2018-12-07T02:41:28.782Z,88.22
2018-12-07T02:43:58.460Z,89.10
2018-12-07T02:46:27.269Z,88.61
2018-12-07T02:48:56.416Z,88.72
2018-12-07T02:51:25.503Z,88.60
2018-12-07T02:53:54.311Z,88.33
2018-12-07T02:56:23.560Z,89.03
2018-12-07T02:58:52.383Z,89.08
2018-12-07T03:01:21.111Z,89.60
2018-12-07T03:03:49.851Z,89.21
2018-12-07T03:06:19.143Z,88.33
2018-12-07T03:08:47.876Z,88.59
2018-12-07T03:11:17.121Z,89.22
2018-12-07T03:13:45.876Z,89.41
2018-12-07T03:16:14.692Z,89.00
2018-12-07T03:18:43.617Z,88.46
2018-12-07T03:21:12.658Z,88.77
2018-12-07T03:23:41.559Z,88.83
2018-12-07T03:26:10.380Z,88.98
2018-12-07T03:28:39.317Z,88.57
2018-12-07T03:31:08.210Z,88.87
2018-12-07T03:33:37.288Z,88.53
2018-12-07T03:36:06.504Z,88.59
2018-12-07T03:38:35.435Z,88.89
2018-12-07T03:41:05.323Z,89.44
2018-12-07T03:43:34.129Z,89.03
2018-12-07T03:46:03.240Z,88.57
2018-12-07T03:48:32.059Z,88.71
2018-12-07T03:51:01.147Z,88.72
2018-12-07T03:53:30.003Z,88.69
2018-12-07T03:55:58.723Z,88.72
2018-12-07T03:58:27.472Z,88.97
2018-12-07T04:00:56.333Z,88.78
2018-12-07T04:03:25.664Z,88.70
2018-12-07T04:06:01.429Z,88.72
2018-12-07T04:08:30.195Z,88.27
2018-12-07T04:10:59.232Z,88.79
2018-12-07T04:13:27.971Z,88.70
2018-12-07T04:15:56.915Z,88.76
2018-12-07T04:18:25.826Z,89.30
2018-12-07T04:20:54.825Z,88.82
2018-12-07T04:23:23.886Z,88.91
2018-12-07T04:25:52.629Z,89.19
2018-12-07T04:28:23.394Z,88.80
2018-12-07T04:30:52.465Z,88.86
2018-12-07T04:33:21.269Z,88.47
2018-12-07T04:35:50.928Z,88.46
2018-12-07T04:38:19.911Z,88.65
2018-12-07T04:40:48.660Z,88.77
2018-12-07T04:43:17.782Z,88.86
2018-12-07T04:45:46.813Z,88.36
2018-12-07T04:48:15.690Z,88.53
2018-12-07T04:50:45.655Z,89.33
2018-12-07T04:53:14.683Z,88.37
2018-12-07T04:55:44.004Z,89.33
2018-12-07T04:58:13.007Z,89.30
2018-12-07T05:00:42.165Z,88.78
2018-12-07T05:03:11.215Z,88.91
2018-12-07T05:05:40.153Z,88.39
2018-12-07T05:08:08.950Z,88.64
2018-12-07T05:10:37.858Z,88.85
2018-12-07T05:13:06.641Z,89.04
2018-12-07T05:15:35.485Z,88.44
2018-12-07T05:18:05.181Z,88.95
2018-12-07T05:20:33.901Z,88.19
2018-12-07T05:23:02.711Z,88.59
2018-12-07T05:25:31.519Z,88.97
2018-12-07T05:28:00.244Z,88.61
2018-12-07T05:30:33.982Z,88.90
2018-12-07T05:33:02.810Z,88.16
2018-12-07T05:35:31.621Z,88.16
2018-12-07T05:38:00.623Z,88.18
2018-12-07T05:40:29.752Z,88.53
2018-12-07T05:42:58.740Z,88.04
2018-12-07T05:45:27.775Z,88.39
2018-12-07T05:47:56.572Z,88.04
2018-12-07T05:50:25.667Z,88.47
2018-12-07T05:52:54.608Z,87.87
2018-12-07T05:55:23.587Z,87.74
2018-12-07T05:57:52.317Z,88.29
2018-12-07T06:00:21.262Z,87.81
2018-12-07T06:02:50.047Z,87.84
2018-12-07T06:05:19.090Z,88.06
2018-12-07T06:07:47.898Z,87.44
2018-12-07T06:10:16.938Z,88.15
2018-12-07T06:12:45.668Z,88.10
2018-12-07T06:15:14.542Z,88.07
2018-12-07T06:17:43.596Z,88.08
2018-12-07T06:20:12.415Z,87.77
2018-12-07T06:22:41.439Z,87.48
2018-12-07T06:25:10.326Z,87.54
2018-12-07T06:27:39.263Z,87.98
2018-12-07T06:30:08.135Z,87.96
2018-12-07T06:32:37.047Z,88.04
2018-12-07T06:35:05.952Z,87.58
2018-12-07T06:37:34.740Z,88.03
2018-12-07T06:40:04.144Z,87.93
2018-12-07T06:42:33.219Z,87.46
2018-12-07T06:45:01.971Z,88.03
2018-12-07T06:47:30.697Z,87.82
2018-12-07T06:49:59.653Z,88.16
2018-12-07T06:52:28.376Z,88.29
2018-12-07T06:54:57.256Z,87.59
2018-12-07T06:57:25.985Z,88.44
2018-12-07T07:00:01.545Z,87.71
2018-12-07T07:02:30.808Z,88.57
2018-12-07T07:04:59.748Z,87.96
2018-12-07T07:07:28.481Z,88.55
2018-12-07T07:09:57.362Z,88.34
2018-12-07T07:12:26.091Z,88.45
2018-12-07T07:14:54.832Z,87.48
2018-12-07T07:17:23.591Z,88.32
2018-12-07T07:19:52.335Z,87.73
2018-12-07T07:22:21.163Z,88.33
2018-12-07T07:24:50.018Z,88.22
2018-12-07T07:27:18.755Z,87.84
2018-12-07T07:29:47.565Z,88.15
2018-12-07T07:32:16.381Z,88.00
2018-12-07T07:34:45.111Z,87.79
2018-12-07T07:37:14.006Z,87.90
2018-12-07T07:39:42.798Z,87.87
2018-12-07T07:42:11.744Z,88.56
2018-12-07T07:44:40.798Z,87.56
2018-12-07T07:47:09.523Z,88.16
2018-12-07T07:49:38.260Z,88.12
2018-12-07T07:52:07.251Z,87.77
2018-12-07T07:54:36.302Z,87.55
2018-12-07T07:57:05.168Z,88.50
2018-12-07T07:59:34.254Z,88.41
2018-12-07T08:02:03.206Z,88.39
2018-12-07T08:04:32.120Z,88.00
2018-12-07T08:07:00.925Z,88.12
2018-12-07T08:09:29.657Z,87.73
2018-12-07T08:11:58.468Z,87.50
2018-12-07T08:14:27.464Z,87.92
2018-12-07T08:16:56.379Z,88.25
2018-12-07T08:19:25.183Z,87.92
2018-12-07T08:21:54.008Z,88.27
2018-12-07T08:24:22.727Z,87.96
2018-12-07T08:26:51.907Z,88.03
2018-12-07T08:29:20.744Z,87.85
2018-12-07T08:31:49.805Z,88.35
2018-12-07T08:34:18.624Z,87.63
2018-12-07T08:36:47.472Z,87.73
2018-12-07T08:39:16.323Z,87.77
2018-12-07T08:41:45.395Z,87.49
2018-12-07T08:44:14.183Z,88.11
2018-12-07T08:46:43.386Z,87.52
2018-12-07T08:49:12.127Z,87.13
2018-12-07T08:51:41.195Z,86.74
2018-12-07T08:54:10.071Z,87.71
2018-12-07T08:56:39.111Z,87.49
2018-12-07T08:59:08.175Z,87.83
2018-12-07T09:01:38.097Z,87.46
2018-12-07T09:04:07.480Z,87.72
2018-12-07T09:06:36.289Z,86.98
2018-12-07T09:09:07.333Z,87.65
2018-12-07T09:11:36.116Z,88.23
2018-12-07T09:14:05.195Z,87.51
2018-12-07T09:16:33.919Z,87.47
2018-12-07T09:19:02.808Z,87.39
2018-12-07T09:21:31.549Z,86.71
2018-12-07T09:24:00.252Z,87.90
2018-12-07T09:26:28.985Z,87.47
2018-12-07T09:28:57.868Z,87.43
2018-12-07T09:31:26.583Z,87.61
2018-12-07T09:33:55.447Z,87.30
2018-12-07T09:36:24.131Z,87.71
2018-12-07T09:38:53.195Z,87.72
2018-12-07T09:41:22.012Z,87.43
2018-12-07T09:43:51.743Z,87.94
2018-12-07T09:46:20.543Z,87.31
2018-12-07T09:48:50.320Z,87.81
2018-12-07T09:51:19.329Z,87.55
2018-12-07T09:53:48.127Z,87.72
2018-12-07T09:56:16.922Z,87.68
2018-12-07T09:58:45.921Z,87.72
2018-12-07T10:01:14.814Z,87.07
2018-12-07T10:03:43.868Z,87.89
2018-12-07T10:06:12.616Z,87.57
2018-12-07T10:08:41.826Z,86.96
2018-12-07T10:11:10.824Z,87.79
2018-12-07T10:13:39.618Z,86.96
2018-12-07T10:16:08.521Z,86.81
2018-12-07T10:18:37.482Z,86.69
2018-12-07T10:21:06.207Z,86.63
2018-12-07T10:23:35.190Z,87.05
2018-12-07T10:26:05.008Z,86.12
2018-12-07T10:28:34.060Z,86.48
2018-12-07T10:31:02.767Z,86.74
2018-12-07T10:33:32.124Z,86.12
2018-12-07T10:36:01.054Z,86.83
2018-12-07T10:38:30.179Z,86.39
2018-12-07T10:40:59.063Z,86.36
2018-12-07T10:43:27.782Z,86.53
2018-12-07T10:45:56.747Z,85.65
2018-12-07T10:48:25.791Z,86.36
2018-12-07T10:50:54.669Z,85.98
2018-12-07T10:53:30.005Z,86.01
2018-12-07T10:55:58.723Z,86.02
2018-12-07T10:58:27.559Z,85.84
2018-12-07T11:01:01.647Z,86.11
2018-12-07T11:03:35.944Z,85.85
2018-12-07T11:06:13.082Z,85.39
2018-12-07T11:08:47.323Z,86.39
2018-12-07T11:11:21.368Z,85.99
2018-12-07T11:13:55.436Z,85.56
2018-12-07T11:16:29.548Z,85.77
2018-12-07T11:19:03.608Z,85.10
2018-12-07T11:21:37.579Z,84.89
2018-12-07T11:24:11.655Z,85.23
2018-12-07T11:26:45.912Z,84.84
2018-12-07T11:29:24.891Z,85.07
2018-12-07T11:31:59.075Z,83.76
2018-12-07T11:34:29.748Z,84.58
2018-12-07T11:36:58.783Z,85.56
2018-12-07T11:39:27.507Z,84.82
2018-12-07T11:41:56.587Z,83.71
2018-12-07T11:44:27.243Z,83.34
2018-12-07T11:46:56.121Z,83.91
2018-12-07T11:49:30.461Z,83.56
2018-12-07T11:51:59.801Z,83.63
2018-12-07T11:54:28.704Z,84.07
2018-12-07T11:56:57.413Z,83.41
2018-12-07T11:59:26.170Z,83.47
2018-12-07T12:01:55.243Z,83.47
2018-12-07T12:04:24.002Z,83.32
2018-12-07T12:06:52.815Z,83.64
2018-12-07T12:09:21.570Z,83.94
2018-12-07T12:11:52.295Z,83.29
2018-12-07T12:14:21.028Z,82.95
2018-12-07T12:16:49.758Z,83.83
2018-12-07T12:19:18.815Z,82.86
2018-12-07T12:21:48.871Z,83.36
2018-12-07T12:24:17.636Z,82.79
2018-12-07T12:26:46.561Z,82.90
2018-12-07T12:29:15.333Z,83.38
2018-12-07T12:31:44.047Z,82.79
2018-12-07T12:34:13.223Z,83.26
2018-12-07T12:36:42.100Z,82.71
2018-12-07T12:39:10.980Z,83.25
2018-12-07T12:41:46.545Z,83.17
2018-12-07T12:44:10.779Z,83.74
2018-12-07T12:46:39.607Z,83.71
2018-12-07T12:49:08.572Z,84.03
2018-12-07T12:51:39.237Z,84.28
2018-12-07T12:54:07.971Z,84.08
2018-12-07T12:56:36.985Z,84.38
2018-12-07T12:59:06.743Z,83.73
2018-12-07T13:01:35.549Z,83.21
2018-12-07T13:04:04.944Z,83.63
2018-12-07T13:06:33.967Z,83.36
2018-12-07T13:09:02.936Z,83.34
2018-12-07T13:11:33.700Z,83.24
2018-12-07T13:14:02.495Z,82.22
2018-12-07T13:16:31.407Z,81.95
2018-12-07T13:19:00.461Z,81.89
2018-12-07T13:21:29.296Z,81.57
2018-12-07T13:23:58.303Z,81.66
2018-12-07T13:26:27.123Z,81.83
2018-12-07T13:28:55.987Z,81.99
2018-12-07T13:31:24.848Z,81.84
2018-12-07T13:33:53.778Z,81.42
2018-12-07T13:36:22.494Z,81.33
2018-12-07T13:38:51.275Z,80.59
2018-12-07T13:41:19.998Z,81.46
2018-12-07T13:43:49.004Z,81.91
2018-12-07T13:46:18.148Z,81.90
2018-12-07T13:48:47.157Z,81.33
2018-12-07T13:51:16.456Z,81.33
2018-12-07T13:53:45.695Z,80.72
2018-12-07T13:56:16.315Z,80.97
2018-12-07T13:58:46.507Z,81.71
2018-12-07T14:01:15.279Z,82.12
2018-12-07T14:03:44.659Z,81.70
2018-12-07T14:06:13.578Z,82.75
2018-12-07T14:08:42.550Z,82.24
2018-12-07T14:11:11.378Z,80.88
2018-12-07T14:13:40.242Z,81.22
2018-12-07T14:16:09.208Z,81.18
2018-12-07T14:18:38.040Z,81.68
2018-12-07T14:21:07.119Z,81.53
2018-12-07T14:23:37.006Z,81.40
2018-12-07T14:26:06.134Z,81.46
2018-12-07T14:28:35.018Z,81.58
2018-12-07T14:31:03.918Z,81.82
2018-12-07T14:33:32.937Z,82.32
2018-12-07T14:36:02.898Z,82.12
2018-12-07T14:38:32.064Z,82.77
2018-12-07T14:41:01.325Z,82.64
2018-12-07T14:43:30.604Z,83.49
2018-12-07T14:45:59.500Z,82.92
2018-12-07T14:48:28.391Z,83.76
2018-12-07T14:50:57.364Z,82.69
2018-12-07T14:53:26.626Z,83.21
2018-12-07T14:55:55.404Z,83.46
2018-12-07T14:58:24.148Z,83.39
2018-12-07T15:00:53.188Z,83.21
2018-12-07T15:03:22.311Z,83.59
2018-12-07T15:05:51.297Z,83.72
2018-12-07T15:08:20.140Z,83.57
2018-12-07T15:10:55.529Z,84.20
2018-12-07T15:13:24.377Z,83.92
2018-12-07T15:15:53.444Z,84.74
2018-12-07T15:18:22.243Z,84.44
2018-12-07T15:20:51.385Z,84.20
2018-12-07T15:23:20.343Z,84.68
2018-12-07T15:25:49.376Z,84.82
2018-12-07T15:28:18.554Z,83.97
2018-12-07T15:30:47.431Z,84.21
2018-12-07T15:33:16.245Z,83.18
2018-12-07T15:35:45.370Z,83.28
2018-12-07T15:38:14.525Z,83.73
2018-12-07T15:40:43.587Z,83.59
2018-12-07T15:43:12.383Z,84.14
2018-12-07T15:45:41.157Z,84.30
2018-12-07T15:48:10.149Z,84.09
2018-12-07T15:50:39.221Z,84.07
2018-12-07T15:53:08.077Z,83.74
2018-12-07T15:55:37.248Z,84.25
2018-12-07T15:58:06.529Z,83.98
2018-12-07T16:00:35.415Z,84.42
2018-12-07T16:03:05.573Z,84.14
2018-12-07T16:05:34.868Z,83.96
2018-12-07T16:13:27.179Z,85.21
2018-12-07T16:15:56.085Z,84.57
2018-12-07T16:18:25.275Z,84.52
2018-12-07T16:20:54.169Z,84.88
2018-12-07T16:23:24.399Z,84.99
2018-12-07T16:25:53.827Z,85.38
2018-12-07T16:28:22.618Z,85.55
2018-12-07T16:30:52.355Z,84.64
2018-12-07T16:33:21.514Z,84.88
2018-12-07T16:35:50.516Z,84.54
2018-12-07T16:38:19.302Z,84.96
2018-12-07T16:40:48.097Z,84.95
2018-12-07T16:43:17.131Z,85.36
2018-12-07T16:45:46.123Z,84.99
2018-12-07T16:48:15.210Z,85.32
2018-12-07T16:50:44.269Z,84.83
2018-12-07T16:53:21.706Z,85.35
2018-12-07T16:55:50.904Z,85.12
2018-12-07T16:58:23.749Z,85.06
2018-12-07T17:00:53.652Z,84.89
2018-12-07T17:03:22.884Z,85.68
2018-12-07T17:05:51.970Z,85.14
2018-12-07T17:08:21.365Z,85.28
2018-12-07T17:10:50.824Z,85.02
2018-12-07T17:13:20.269Z,85.27
2018-12-07T17:15:49.286Z,85.00
2018-12-07T17:18:19.119Z,84.54
2018-12-07T17:20:48.221Z,84.58
2018-12-07T17:23:17.247Z,84.61
2018-12-07T17:25:46.222Z,84.47
2018-12-07T17:28:15.267Z,84.92
2018-12-07T17:30:44.439Z,85.63
2018-12-07T17:33:13.880Z,84.44
2018-12-07T17:35:42.990Z,79.05
2018-12-07T17:38:12.123Z,79.37
2018-12-07T17:40:41.241Z,79.27
2018-12-07T17:43:10.222Z,79.48
2018-12-07T17:45:39.244Z,80.02
2018-12-07T17:48:08.404Z,80.79
2018-12-07T17:50:37.565Z,80.77
2018-12-07T17:53:06.603Z,81.45
2018-12-07T17:55:35.379Z,82.02
2018-12-07T17:58:05.248Z,81.73
2018-12-07T18:00:34.402Z,82.78
2018-12-07T18:03:05.508Z,81.45
2018-12-07T18:05:34.754Z,81.94
2018-12-07T18:08:03.732Z,82.09
2018-12-07T18:10:32.456Z,82.35
2018-12-07T18:13:01.263Z,81.02
2018-12-07T18:15:30.301Z,80.72
2018-12-07T18:17:59.378Z,81.19
2018-12-07T18:20:29.150Z,80.57
2018-12-07T18:22:58.417Z,80.88
2018-12-07T18:25:27.262Z,80.22
2018-12-07T18:27:56.274Z,80.27
2018-12-07T18:30:25.532Z,79.61
2018-12-07T18:32:54.648Z,80.07
2018-12-07T18:35:28.746Z,79.72
2018-12-07T18:37:57.847Z,79.56
2018-12-07T18:40:26.839Z,79.70
2018-12-07T18:42:55.806Z,79.64
2018-12-07T18:45:24.633Z,79.14
2018-12-07T18:47:53.440Z,78.81
2018-12-07T18:50:22.280Z,79.77
2018-12-07T18:52:51.327Z,79.63
2018-12-07T18:55:20.426Z,79.76
2018-12-07T18:57:49.435Z,79.68
2018-12-07T19:00:18.411Z,79.48
2018-12-07T19:02:47.515Z,79.28
2018-12-07T19:05:16.579Z,79.24
2018-12-07T19:07:45.410Z,78.97
2018-12-07T19:10:14.275Z,78.72
2018-12-07T19:12:43.037Z,78.99
2018-12-07T19:15:11.855Z,79.31
2018-12-07T19:17:40.925Z,79.13
2018-12-07T19:20:10.162Z,79.34
2018-12-07T19:22:39.511Z,79.25
2018-12-07T19:25:08.812Z,79.30
2018-12-07T19:27:37.762Z,79.29
2018-12-07T19:30:14.631Z,79.34
2018-12-07T19:32:40.493Z,79.52
2018-12-07T19:35:09.597Z,79.46
2018-12-07T19:37:38.585Z,79.41
2018-12-07T19:40:07.718Z,79.40
2018-12-07T19:42:36.477Z,78.91
2018-12-07T19:45:06.699Z,79.70
2018-12-07T19:47:36.081Z,79.06
2018-12-07T19:50:05.939Z,79.40
2018-12-07T19:52:35.008Z,79.68
2018-12-07T19:55:05.786Z,79.91
2018-12-07T19:57:34.778Z,78.83
2018-12-07T20:00:04.815Z,78.69
2018-12-07T20:02:33.976Z,78.64
2018-12-07T20:05:03.012Z,77.90
2018-12-07T20:07:32.571Z,77.11
2018-12-07T20:10:01.594Z,77.56
2018-12-07T20:12:30.848Z,76.31
2018-12-07T20:14:59.708Z,76.68
2018-12-07T20:17:28.783Z,76.86
2018-12-07T20:19:58.574Z,76.85
2018-12-07T20:22:27.666Z,76.30
2018-12-07T20:24:56.761Z,76.65
2018-12-07T20:27:25.941Z,76.77
2018-12-07T20:29:54.683Z,76.79
2018-12-07T20:32:23.610Z,77.18
2018-12-07T20:34:54.061Z,77.63
2018-12-07T20:37:23.227Z,77.91
2018-12-07T20:39:52.328Z,78.44
2018-12-07T20:42:21.855Z,78.46
2018-12-07T20:44:50.815Z,78.51
2018-12-07T20:47:24.572Z,78.28
2018-12-07T20:49:50.338Z,78.50
2018-12-07T20:52:19.170Z,79.20
2018-12-07T20:54:47.952Z,78.93
2018-12-07T20:57:17.217Z,79.10
2018-12-07T20:59:46.232Z,78.93
2018-12-07T21:02:15.526Z,78.73
2018-12-07T21:04:44.812Z,78.25
2018-12-07T21:07:31.091Z,78.04
2018-12-07T21:14:56.609Z,77.89
2018-12-07T21:17:30.736Z,78.01
2018-12-07T21:20:30.881Z,78.12
2018-12-07T21:22:59.854Z,78.58
2018-12-07T21:25:28.938Z,78.66
2018-12-07T21:27:57.874Z,79.00
2018-12-07T21:30:43.769Z,78.56
2018-12-07T21:33:12.523Z,78.19
2018-12-07T21:36:50.502Z,78.62
2018-12-07T21:39:32.800Z,78.71
2018-12-07T21:42:01.571Z,78.77
2018-12-07T21:44:30.405Z,78.75
2018-12-07T21:46:59.496Z,78.67
2018-12-07T21:49:31.971Z,78.60
2018-12-07T21:52:09.324Z,78.51
2018-12-07T21:54:38.579Z,79.03
2018-12-07T21:57:07.583Z,78.80
2018-12-07T21:59:36.585Z,78.70
2018-12-07T22:02:06.108Z,79.15
2018-12-07T22:04:35.438Z,79.23
2018-12-07T22:07:05.564Z,79.02
2018-12-07T22:09:34.518Z,79.32
2018-12-07T22:12:03.793Z,79.46
2018-12-07T22:14:32.742Z,79.28
2018-12-07T22:17:01.963Z,79.82
2018-12-07T22:19:30.772Z,79.36
2018-12-07T22:21:59.862Z,79.60
2018-12-07T22:24:28.723Z,79.70
2018-12-07T22:26:57.518Z,79.54
2018-12-07T22:29:26.504Z,79.23
2018-12-07T22:31:55.295Z,79.08
2018-12-07T22:34:24.895Z,78.77
2018-12-07T22:36:54.007Z,78.61
2018-12-07T22:39:22.983Z,78.16
2018-12-07T22:41:52.112Z,77.99
2018-12-07T22:47:20.825Z,77.19
2018-12-07T22:56:09.381Z,77.34
2018-12-07T22:58:38.091Z,77.99
2018-12-07T23:01:07.195Z,77.91
2018-12-07T23:03:37.930Z,77.39
2018-12-07T23:06:06.924Z,77.22
2018-12-07T23:08:35.945Z,77.39
2018-12-07T23:11:05.325Z,77.65
2018-12-07T23:13:34.531Z,77.40
2018-12-07T23:16:03.350Z,76.62
2018-12-07T23:18:32.510Z,77.10
2018-12-07T23:21:01.370Z,76.28
2018-12-07T23:23:30.469Z,76.53
2018-12-07T23:25:59.331Z,77.10
2018-12-07T23:28:28.430Z,76.84
2018-12-07T23:30:57.136Z,76.96
2018-12-07T23:33:27.006Z,76.94
2018-12-07T23:35:56.108Z,77.16
2018-12-07T23:38:25.227Z,76.51
2018-12-07T23:40:54.282Z,77.17
2018-12-07T23:43:23.405Z,77.09
2018-12-07T23:45:52.273Z,76.80
2018-12-07T23:48:21.155Z,77.17
2018-12-07T23:50:50.095Z,77.22
2018-12-07T23:53:18.816Z,77.85
2018-12-07T23:55:48.023Z,77.74
2018-12-07T23:58:16.972Z,78.10
